sensor_id;sensor_type;location;lat;lon;timestamp;P1;durP1;ratioP1;P2;durP2;ratioP2
4694;SDS011;2361;49.540;8.390;2022-08-19T00:02:01;17.20;;;12.00;;
4694;SDS011;2361;49.540;8.390;2022-08-19T00:04:32;18.60;;;12.53;;
4694;SDS011;2361;49.540;8.390;2022-08-19T00:07:04;21.10;;;13.03;;
4694;SDS011;2361;49.540;8.390;2022-08-19T00:09:32;18.13;;;12.00;;
4694;SDS011;2361;49.540;8.390;2022-08-19T00:11:59;17.63;;;12.03;;
4694;SDS011;2361;49.540;8.390;2022-08-19T00:14:27;16.67;;;11.80;;
4694;SDS011;2361;49.540;8.390;2022-08-19T00:16:57;24.07;;;15.50;;
4694;SDS011;2361;49.540;8.390;2022-08-19T00:19:25;19.70;;;13.40;;
4694;SDS011;2361;49.540;8.390;2022-08-19T00:21:52;18.00;;;12.60;;
4694;SDS011;2361;49.540;8.390;2022-08-19T00:24:19;21.37;;;14.47;;
4694;SDS011;2361;49.540;8.390;2022-08-19T00:26:47;21.77;;;13.90;;
4694;SDS011;2361;49.540;8.390;2022-08-19T00:29:15;22.00;;;14.03;;
4694;SDS011;2361;49.540;8.390;2022-08-19T00:31:44;19.90;;;13.20;;
4694;SDS011;2361;49.540;8.390;2022-08-19T00:34:13;21.90;;;13.33;;
4694;SDS011;2361;49.540;8.390;2022-08-19T00:36:41;21.37;;;13.30;;
4694;SDS011;2361;49.540;8.390;2022-08-19T00:39:09;21.13;;;13.10;;
4694;SDS011;2361;49.540;8.390;2022-08-19T00:41:37;16.80;;;11.43;;
4694;SDS011;2361;49.540;8.390;2022-08-19T00:44:08;20.67;;;13.10;;
4694;SDS011;2361;49.540;8.390;2022-08-19T00:46:40;22.40;;;13.97;;
4694;SDS011;2361;49.540;8.390;2022-08-19T00:49:22;17.47;;;11.83;;
4694;SDS011;2361;49.540;8.390;2022-08-19T00:52:04;18.50;;;12.50;;
4694;SDS011;2361;49.540;8.390;2022-08-19T00:54:35;18.00;;;11.90;;
4694;SDS011;2361;49.540;8.390;2022-08-19T00:57:04;17.00;;;11.47;;
4694;SDS011;2361;49.540;8.390;2022-08-19T00:59:35;19.63;;;12.37;;
4694;SDS011;2361;49.540;8.390;2022-08-19T01:02:26;16.60;;;11.97;;
4694;SDS011;2361;49.540;8.390;2022-08-19T01:04:54;15.90;;;11.60;;
4694;SDS011;2361;49.540;8.390;2022-08-19T01:07:21;18.20;;;12.37;;
4694;SDS011;2361;49.540;8.390;2022-08-19T01:09:49;19.77;;;13.80;;
4694;SDS011;2361;49.540;8.390;2022-08-19T01:12:16;19.40;;;13.03;;
4694;SDS011;2361;49.540;8.390;2022-08-19T01:14:45;20.27;;;12.50;;
4694;SDS011;2361;49.540;8.390;2022-08-19T01:17:13;17.60;;;12.30;;
4694;SDS011;2361;49.540;8.390;2022-08-19T01:19:42;19.93;;;13.70;;
4694;SDS011;2361;49.540;8.390;2022-08-19T01:24:55;19.53;;;13.00;;
4694;SDS011;2361;49.540;8.390;2022-08-19T01:27:24;17.03;;;12.40;;
4694;SDS011;2361;49.540;8.390;2022-08-19T01:29:54;21.37;;;12.80;;
4694;SDS011;2361;49.540;8.390;2022-08-19T01:32:22;20.07;;;13.27;;
4694;SDS011;2361;49.540;8.390;2022-08-19T01:34:59;17.60;;;12.37;;
4694;SDS011;2361;49.540;8.390;2022-08-19T01:37:29;25.10;;;15.23;;
4694;SDS011;2361;49.540;8.390;2022-08-19T01:40:08;21.37;;;14.03;;
4694;SDS011;2361;49.540;8.390;2022-08-19T01:42:36;22.57;;;14.03;;
4694;SDS011;2361;49.540;8.390;2022-08-19T01:45:03;19.63;;;13.20;;
4694;SDS011;2361;49.540;8.390;2022-08-19T01:47:36;19.67;;;13.60;;
4694;SDS011;2361;49.540;8.390;2022-08-19T01:50:05;20.43;;;12.80;;
4694;SDS011;2361;49.540;8.390;2022-08-19T01:52:40;18.40;;;12.47;;
4694;SDS011;2361;49.540;8.390;2022-08-19T01:55:11;17.23;;;12.03;;
4694;SDS011;2361;49.540;8.390;2022-08-19T01:57:52;22.40;;;12.87;;
4694;SDS011;2361;49.540;8.390;2022-08-19T02:00:24;20.47;;;13.10;;
4694;SDS011;2361;49.540;8.390;2022-08-19T02:02:54;22.03;;;14.47;;
4694;SDS011;2361;49.540;8.390;2022-08-19T02:05:21;23.10;;;14.67;;
4694;SDS011;2361;49.540;8.390;2022-08-19T02:07:49;22.90;;;15.00;;
4694;SDS011;2361;49.540;8.390;2022-08-19T02:10:18;22.30;;;13.77;;
4694;SDS011;2361;49.540;8.390;2022-08-19T02:12:48;21.80;;;11.97;;
4694;SDS011;2361;49.540;8.390;2022-08-19T02:15:16;24.17;;;13.50;;
4694;SDS011;2361;49.540;8.390;2022-08-19T02:17:45;20.73;;;13.20;;
4694;SDS011;2361;49.540;8.390;2022-08-19T02:20:13;17.87;;;12.17;;
4694;SDS011;2361;49.540;8.390;2022-08-19T02:22:41;17.70;;;12.00;;
4694;SDS011;2361;49.540;8.390;2022-08-19T02:25:10;19.23;;;11.97;;
4694;SDS011;2361;49.540;8.390;2022-08-19T02:27:39;17.57;;;11.27;;
4694;SDS011;2361;49.540;8.390;2022-08-19T02:30:08;17.23;;;11.73;;
4694;SDS011;2361;49.540;8.390;2022-08-19T02:32:39;18.30;;;11.60;;
4694;SDS011;2361;49.540;8.390;2022-08-19T02:35:10;18.20;;;11.83;;
4694;SDS011;2361;49.540;8.390;2022-08-19T02:37:39;17.57;;;11.70;;
4694;SDS011;2361;49.540;8.390;2022-08-19T02:40:27;17.47;;;11.97;;
4694;SDS011;2361;49.540;8.390;2022-08-19T02:42:55;19.87;;;12.17;;
4694;SDS011;2361;49.540;8.390;2022-08-19T02:45:23;17.57;;;11.70;;
4694;SDS011;2361;49.540;8.390;2022-08-19T02:47:50;22.00;;;13.27;;
4694;SDS011;2361;49.540;8.390;2022-08-19T02:50:17;17.60;;;11.03;;
4694;SDS011;2361;49.540;8.390;2022-08-19T02:52:44;19.10;;;11.80;;
4694;SDS011;2361;49.540;8.390;2022-08-19T02:55:11;25.07;;;15.40;;
4694;SDS011;2361;49.540;8.390;2022-08-19T02:57:38;20.10;;;12.90;;
4694;SDS011;2361;49.540;8.390;2022-08-19T03:00:06;19.70;;;13.07;;
4694;SDS011;2361;49.540;8.390;2022-08-19T03:02:35;19.57;;;12.23;;
4694;SDS011;2361;49.540;8.390;2022-08-19T03:05:03;16.20;;;10.80;;
4694;SDS011;2361;49.540;8.390;2022-08-19T03:07:31;18.60;;;12.20;;
4694;SDS011;2361;49.540;8.390;2022-08-19T03:09:58;17.17;;;11.50;;
4694;SDS011;2361;49.540;8.390;2022-08-19T03:12:25;18.43;;;12.30;;
4694;SDS011;2361;49.540;8.390;2022-08-19T03:14:52;16.47;;;11.73;;
4694;SDS011;2361;49.540;8.390;2022-08-19T03:17:19;16.77;;;10.80;;
4694;SDS011;2361;49.540;8.390;2022-08-19T03:19:46;28.00;;;12.17;;
4694;SDS011;2361;49.540;8.390;2022-08-19T03:22:13;14.93;;;10.13;;
4694;SDS011;2361;49.540;8.390;2022-08-19T03:24:40;17.30;;;10.20;;
4694;SDS011;2361;49.540;8.390;2022-08-19T03:27:07;19.60;;;13.27;;
4694;SDS011;2361;49.540;8.390;2022-08-19T03:29:34;19.27;;;12.00;;
4694;SDS011;2361;49.540;8.390;2022-08-19T03:32:09;16.17;;;10.87;;
4694;SDS011;2361;49.540;8.390;2022-08-19T03:34:56;18.50;;;10.67;;
4694;SDS011;2361;49.540;8.390;2022-08-19T03:37:23;19.77;;;11.70;;
4694;SDS011;2361;49.540;8.390;2022-08-19T03:39:51;20.33;;;12.40;;
4694;SDS011;2361;49.540;8.390;2022-08-19T03:42:18;20.00;;;12.40;;
4694;SDS011;2361;49.540;8.390;2022-08-19T03:45:05;18.10;;;10.57;;
4694;SDS011;2361;49.540;8.390;2022-08-19T03:47:33;14.87;;;10.50;;
4694;SDS011;2361;49.540;8.390;2022-08-19T03:50:00;19.80;;;10.30;;
4694;SDS011;2361;49.540;8.390;2022-08-19T03:52:28;18.87;;;11.60;;
4694;SDS011;2361;49.540;8.390;2022-08-19T03:54:55;17.80;;;11.57;;
4694;SDS011;2361;49.540;8.390;2022-08-19T03:57:22;21.57;;;12.07;;
4694;SDS011;2361;49.540;8.390;2022-08-19T03:59:57;16.33;;;11.27;;
4694;SDS011;2361;49.540;8.390;2022-08-19T04:02:39;17.60;;;10.80;;
4694;SDS011;2361;49.540;8.390;2022-08-19T04:05:23;17.43;;;11.57;;
4694;SDS011;2361;49.540;8.390;2022-08-19T04:07:53;20.60;;;10.50;;
4694;SDS011;2361;49.540;8.390;2022-08-19T04:10:21;16.97;;;10.93;;
4694;SDS011;2361;49.540;8.390;2022-08-19T04:12:48;17.80;;;10.77;;
4694;SDS011;2361;49.540;8.390;2022-08-19T04:15:16;17.50;;;10.80;;
4694;SDS011;2361;49.540;8.390;2022-08-19T04:17:43;20.37;;;10.80;;
4694;SDS011;2361;49.540;8.390;2022-08-19T04:20:10;19.17;;;11.40;;
4694;SDS011;2361;49.540;8.390;2022-08-19T04:22:37;15.33;;;10.87;;
4694;SDS011;2361;49.540;8.390;2022-08-19T04:25:04;15.47;;;11.00;;
4694;SDS011;2361;49.540;8.390;2022-08-19T04:27:31;14.70;;;10.47;;
4694;SDS011;2361;49.540;8.390;2022-08-19T04:29:59;17.97;;;11.20;;
4694;SDS011;2361;49.540;8.390;2022-08-19T04:32:26;17.13;;;12.20;;
4694;SDS011;2361;49.540;8.390;2022-08-19T04:34:53;17.07;;;10.37;;
4694;SDS011;2361;49.540;8.390;2022-08-19T04:37:43;18.17;;;11.53;;
4694;SDS011;2361;49.540;8.390;2022-08-19T04:40:09;14.07;;;9.80;;
4694;SDS011;2361;49.540;8.390;2022-08-19T04:42:56;17.93;;;11.50;;
4694;SDS011;2361;49.540;8.390;2022-08-19T04:45:22;16.70;;;11.27;;
4694;SDS011;2361;49.540;8.390;2022-08-19T04:47:54;15.47;;;10.50;;
4694;SDS011;2361;49.540;8.390;2022-08-19T04:50:45;21.33;;;12.30;;
4694;SDS011;2361;49.540;8.390;2022-08-19T04:53:12;17.77;;;11.60;;
4694;SDS011;2361;49.540;8.390;2022-08-19T04:55:40;20.80;;;11.70;;
4694;SDS011;2361;49.540;8.390;2022-08-19T04:58:08;16.80;;;10.67;;
4694;SDS011;2361;49.540;8.390;2022-08-19T05:00:37;16.70;;;12.23;;
4694;SDS011;2361;49.540;8.390;2022-08-19T05:03:06;16.80;;;11.90;;
4694;SDS011;2361;49.540;8.390;2022-08-19T05:05:33;17.20;;;10.63;;
4694;SDS011;2361;49.540;8.390;2022-08-19T05:08:11;18.03;;;12.67;;
4694;SDS011;2361;49.540;8.390;2022-08-19T05:10:56;20.57;;;13.03;;
4694;SDS011;2361;49.540;8.390;2022-08-19T05:13:24;21.23;;;12.10;;
4694;SDS011;2361;49.540;8.390;2022-08-19T05:15:55;16.53;;;11.97;;
4694;SDS011;2361;49.540;8.390;2022-08-19T05:18:25;17.17;;;12.07;;
4694;SDS011;2361;49.540;8.390;2022-08-19T05:21:12;20.13;;;12.07;;
4694;SDS011;2361;49.540;8.390;2022-08-19T05:24:00;17.70;;;12.20;;
4694;SDS011;2361;49.540;8.390;2022-08-19T05:26:28;16.07;;;11.50;;
4694;SDS011;2361;49.540;8.390;2022-08-19T05:28:55;19.33;;;14.30;;
4694;SDS011;2361;49.540;8.390;2022-08-19T05:31:22;17.60;;;12.00;;
4694;SDS011;2361;49.540;8.390;2022-08-19T05:33:49;16.90;;;12.10;;
4694;SDS011;2361;49.540;8.390;2022-08-19T05:36:16;25.80;;;13.43;;
4694;SDS011;2361;49.540;8.390;2022-08-19T05:38:45;17.50;;;12.97;;
4694;SDS011;2361;49.540;8.390;2022-08-19T05:41:13;15.07;;;11.20;;
4694;SDS011;2361;49.540;8.390;2022-08-19T05:43:41;18.53;;;12.30;;
4694;SDS011;2361;49.540;8.390;2022-08-19T05:46:08;17.50;;;11.93;;
4694;SDS011;2361;49.540;8.390;2022-08-19T05:48:53;17.40;;;13.13;;
4694;SDS011;2361;49.540;8.390;2022-08-19T05:51:23;16.53;;;11.87;;
4694;SDS011;2361;49.540;8.390;2022-08-19T05:53:54;13.50;;;10.30;;
4694;SDS011;2361;49.540;8.390;2022-08-19T05:56:21;15.03;;;10.60;;
4694;SDS011;2361;49.540;8.390;2022-08-19T05:58:48;14.57;;;10.87;;
4694;SDS011;2361;49.540;8.390;2022-08-19T06:01:16;15.73;;;10.90;;
4694;SDS011;2361;49.540;8.390;2022-08-19T06:03:45;13.80;;;10.63;;
4694;SDS011;2361;49.540;8.390;2022-08-19T06:06:15;11.97;;;9.10;;
4694;SDS011;2361;49.540;8.390;2022-08-19T06:08:42;13.83;;;10.97;;
4694;SDS011;2361;49.540;8.390;2022-08-19T06:11:21;14.13;;;10.30;;
4694;SDS011;2361;49.540;8.390;2022-08-19T06:14:12;10.93;;;8.87;;
4694;SDS011;2361;49.540;8.390;2022-08-19T06:16:43;15.37;;;10.40;;
4694;SDS011;2361;49.540;8.390;2022-08-19T06:19:13;12.63;;;9.43;;
4694;SDS011;2361;49.540;8.390;2022-08-19T06:21:44;12.23;;;9.30;;
4694;SDS011;2361;49.540;8.390;2022-08-19T06:24:14;10.63;;;8.60;;
4694;SDS011;2361;49.540;8.390;2022-08-19T06:26:45;12.97;;;9.47;;
4694;SDS011;2361;49.540;8.390;2022-08-19T06:29:18;12.03;;;8.70;;
4694;SDS011;2361;49.540;8.390;2022-08-19T06:31:50;9.93;;;8.70;;
4694;SDS011;2361;49.540;8.390;2022-08-19T06:34:20;11.40;;;9.33;;
4694;SDS011;2361;49.540;8.390;2022-08-19T06:36:48;13.50;;;8.60;;
4694;SDS011;2361;49.540;8.390;2022-08-19T06:39:18;11.80;;;8.77;;
4694;SDS011;2361;49.540;8.390;2022-08-19T06:41:50;10.30;;;8.33;;
4694;SDS011;2361;49.540;8.390;2022-08-19T06:44:25;9.90;;;8.00;;
4694;SDS011;2361;49.540;8.390;2022-08-19T06:46:57;11.67;;;8.17;;
4694;SDS011;2361;49.540;8.390;2022-08-19T06:49:24;13.43;;;8.40;;
4694;SDS011;2361;49.540;8.390;2022-08-19T06:51:53;10.67;;;8.17;;
4694;SDS011;2361;49.540;8.390;2022-08-19T06:54:22;8.90;;;7.73;;
4694;SDS011;2361;49.540;8.390;2022-08-19T06:56:56;11.37;;;8.20;;
4694;SDS011;2361;49.540;8.390;2022-08-19T06:59:28;10.50;;;8.10;;
4694;SDS011;2361;49.540;8.390;2022-08-19T07:02:00;12.40;;;8.20;;
4694;SDS011;2361;49.540;8.390;2022-08-19T07:04:32;12.43;;;8.50;;
4694;SDS011;2361;49.540;8.390;2022-08-19T07:07:08;15.03;;;9.07;;
4694;SDS011;2361;49.540;8.390;2022-08-19T07:09:46;13.13;;;8.97;;
4694;SDS011;2361;49.540;8.390;2022-08-19T07:12:27;9.87;;;8.70;;
4694;SDS011;2361;49.540;8.390;2022-08-19T07:15:04;12.60;;;8.50;;
4694;SDS011;2361;49.540;8.390;2022-08-19T07:17:32;13.23;;;10.00;;
4694;SDS011;2361;49.540;8.390;2022-08-19T07:19:59;9.43;;;8.03;;
4694;SDS011;2361;49.540;8.390;2022-08-19T07:22:34;9.80;;;7.80;;
4694;SDS011;2361;49.540;8.390;2022-08-19T07:25:02;9.70;;;8.70;;
4694;SDS011;2361;49.540;8.390;2022-08-19T07:27:31;10.07;;;8.90;;
4694;SDS011;2361;49.540;8.390;2022-08-19T07:29:59;8.20;;;7.40;;
4694;SDS011;2361;49.540;8.390;2022-08-19T07:32:26;8.00;;;7.07;;
4694;SDS011;2361;49.540;8.390;2022-08-19T07:34:54;10.87;;;7.87;;
4694;SDS011;2361;49.540;8.390;2022-08-19T07:37:23;10.27;;;7.57;;
4694;SDS011;2361;49.540;8.390;2022-08-19T07:39:58;2.10;;;1.90;;
4694;SDS011;2361;49.540;8.390;2022-08-19T07:42:27;7.83;;;7.07;;
4694;SDS011;2361;49.540;8.390;2022-08-19T07:44:55;8.97;;;7.73;;
4694;SDS011;2361;49.540;8.390;2022-08-19T07:47:23;9.60;;;8.03;;
4694;SDS011;2361;49.540;8.390;2022-08-19T07:50:10;10.50;;;7.37;;
4694;SDS011;2361;49.540;8.390;2022-08-19T07:52:38;7.53;;;6.77;;
4694;SDS011;2361;49.540;8.390;2022-08-19T07:55:06;7.93;;;7.13;;
4694;SDS011;2361;49.540;8.390;2022-08-19T07:57:55;10.93;;;8.97;;
4694;SDS011;2361;49.540;8.390;2022-08-19T08:00:22;10.00;;;8.30;;
4694;SDS011;2361;49.540;8.390;2022-08-19T08:02:50;10.53;;;8.10;;
4694;SDS011;2361;49.540;8.390;2022-08-19T08:05:22;10.37;;;8.20;;
4694;SDS011;2361;49.540;8.390;2022-08-19T08:08:10;8.90;;;7.83;;
4694;SDS011;2361;49.540;8.390;2022-08-19T08:10:59;9.37;;;8.47;;
4694;SDS011;2361;49.540;8.390;2022-08-19T08:13:27;8.00;;;5.30;;
4694;SDS011;2361;49.540;8.390;2022-08-19T08:15:54;8.50;;;7.17;;
4694;SDS011;2361;49.540;8.390;2022-08-19T08:18:23;10.03;;;7.60;;
4694;SDS011;2361;49.540;8.390;2022-08-19T08:20:53;8.87;;;6.87;;
4694;SDS011;2361;49.540;8.390;2022-08-19T08:23:23;8.50;;;7.53;;
4694;SDS011;2361;49.540;8.390;2022-08-19T08:25:53;9.20;;;8.30;;
4694;SDS011;2361;49.540;8.390;2022-08-19T08:28:23;10.87;;;7.63;;
4694;SDS011;2361;49.540;8.390;2022-08-19T08:30:55;8.53;;;7.70;;
4694;SDS011;2361;49.540;8.390;2022-08-19T08:33:26;7.83;;;6.87;;
4694;SDS011;2361;49.540;8.390;2022-08-19T08:36:06;8.77;;;7.37;;
4694;SDS011;2361;49.540;8.390;2022-08-19T08:38:35;9.60;;;8.43;;
4694;SDS011;2361;49.540;8.390;2022-08-19T08:44:00;7.83;;;7.03;;
4694;SDS011;2361;49.540;8.390;2022-08-19T08:46:34;7.80;;;6.50;;
4694;SDS011;2361;49.540;8.390;2022-08-19T08:52:05;9.00;;;7.07;;
4694;SDS011;2361;49.540;8.390;2022-08-19T08:54:43;7.93;;;7.23;;
4694;SDS011;2361;49.540;8.390;2022-08-19T08:57:48;8.20;;;7.50;;
4694;SDS011;2361;49.540;8.390;2022-08-19T09:00:12;8.77;;;7.80;;
4694;SDS011;2361;49.540;8.390;2022-08-19T09:02:44;9.77;;;8.90;;
4694;SDS011;2361;49.540;8.390;2022-08-19T09:05:16;7.80;;;7.00;;
4694;SDS011;2361;49.540;8.390;2022-08-19T09:08:05;11.50;;;8.43;;
4694;SDS011;2361;49.540;8.390;2022-08-19T09:10:44;8.67;;;7.97;;
4694;SDS011;2361;49.540;8.390;2022-08-19T09:13:28;10.13;;;9.17;;
4694;SDS011;2361;49.540;8.390;2022-08-19T09:16:30;12.57;;;8.80;;
4694;SDS011;2361;49.540;8.390;2022-08-19T09:19:00;9.43;;;6.50;;
4694;SDS011;2361;49.540;8.390;2022-08-19T09:21:31;8.13;;;7.40;;
4694;SDS011;2361;49.540;8.390;2022-08-19T09:24:01;8.57;;;6.80;;
4694;SDS011;2361;49.540;8.390;2022-08-19T09:26:31;10.13;;;8.83;;
4694;SDS011;2361;49.540;8.390;2022-08-19T09:29:13;8.90;;;8.00;;
4694;SDS011;2361;49.540;8.390;2022-08-19T09:31:42;8.33;;;7.63;;
4694;SDS011;2361;49.540;8.390;2022-08-19T09:34:09;8.00;;;7.20;;
4694;SDS011;2361;49.540;8.390;2022-08-19T09:36:47;10.80;;;9.90;;
4694;SDS011;2361;49.540;8.390;2022-08-19T09:39:19;10.63;;;9.00;;
4694;SDS011;2361;49.540;8.390;2022-08-19T09:41:47;13.10;;;8.57;;
4694;SDS011;2361;49.540;8.390;2022-08-19T09:44:16;7.00;;;6.40;;
4694;SDS011;2361;49.540;8.390;2022-08-19T09:46:44;8.50;;;7.80;;
4694;SDS011;2361;49.540;8.390;2022-08-19T09:49:13;8.23;;;7.33;;
4694;SDS011;2361;49.540;8.390;2022-08-19T09:51:43;7.10;;;6.50;;
4694;SDS011;2361;49.540;8.390;2022-08-19T09:54:16;7.37;;;6.67;;
4694;SDS011;2361;49.540;8.390;2022-08-19T09:56:50;9.27;;;8.00;;
4694;SDS011;2361;49.540;8.390;2022-08-19T09:59:18;10.17;;;8.87;;
4694;SDS011;2361;49.540;8.390;2022-08-19T10:01:45;5.40;;;4.90;;
4694;SDS011;2361;49.540;8.390;2022-08-19T10:04:13;8.20;;;7.50;;
4694;SDS011;2361;49.540;8.390;2022-08-19T10:06:47;8.53;;;7.70;;
4694;SDS011;2361;49.540;8.390;2022-08-19T10:09:20;9.27;;;8.37;;
4694;SDS011;2361;49.540;8.390;2022-08-19T10:12:00;8.60;;;7.80;;
4694;SDS011;2361;49.540;8.390;2022-08-19T10:14:29;8.17;;;7.57;;
4694;SDS011;2361;49.540;8.390;2022-08-19T10:16:56;9.33;;;8.53;;
4694;SDS011;2361;49.540;8.390;2022-08-19T10:19:24;7.73;;;7.03;;
4694;SDS011;2361;49.540;8.390;2022-08-19T10:21:52;8.37;;;7.77;;
4694;SDS011;2361;49.540;8.390;2022-08-19T10:24:25;7.70;;;7.00;;
4694;SDS011;2361;49.540;8.390;2022-08-19T10:26:54;10.23;;;9.00;;
4694;SDS011;2361;49.540;8.390;2022-08-19T10:29:25;10.13;;;9.27;;
4694;SDS011;2361;49.540;8.390;2022-08-19T10:31:58;11.70;;;10.57;;
4694;SDS011;2361;49.540;8.390;2022-08-19T10:34:38;8.40;;;7.70;;
4694;SDS011;2361;49.540;8.390;2022-08-19T10:37:14;10.87;;;9.73;;
4694;SDS011;2361;49.540;8.390;2022-08-19T10:39:56;8.70;;;8.00;;
4694;SDS011;2361;49.540;8.390;2022-08-19T10:42:23;10.03;;;9.20;;
4694;SDS011;2361;49.540;8.390;2022-08-19T10:44:50;11.10;;;10.20;;
4694;SDS011;2361;49.540;8.390;2022-08-19T10:47:17;10.97;;;9.97;;
4694;SDS011;2361;49.540;8.390;2022-08-19T10:49:51;13.10;;;11.80;;
4694;SDS011;2361;49.540;8.390;2022-08-19T10:52:42;12.13;;;10.43;;
4694;SDS011;2361;49.540;8.390;2022-08-19T10:55:16;11.20;;;10.13;;
4694;SDS011;2361;49.540;8.390;2022-08-19T10:58:09;10.20;;;9.30;;
4694;SDS011;2361;49.540;8.390;2022-08-19T11:00:42;9.40;;;8.50;;
4694;SDS011;2361;49.540;8.390;2022-08-19T11:03:10;8.50;;;7.63;;
4694;SDS011;2361;49.540;8.390;2022-08-19T11:05:37;8.67;;;7.87;;
4694;SDS011;2361;49.540;8.390;2022-08-19T11:08:06;8.00;;;7.30;;
4694;SDS011;2361;49.540;8.390;2022-08-19T11:10:49;8.53;;;7.80;;
4694;SDS011;2361;49.540;8.390;2022-08-19T11:13:21;8.20;;;7.23;;
4694;SDS011;2361;49.540;8.390;2022-08-19T11:15:56;12.23;;;9.30;;
4694;SDS011;2361;49.540;8.390;2022-08-19T11:18:43;8.70;;;7.80;;
4694;SDS011;2361;49.540;8.390;2022-08-19T11:23:47;9.07;;;8.27;;
4694;SDS011;2361;49.540;8.390;2022-08-19T11:26:17;9.70;;;8.33;;
4694;SDS011;2361;49.540;8.390;2022-08-19T11:28:46;11.57;;;7.80;;
4694;SDS011;2361;49.540;8.390;2022-08-19T11:31:14;10.10;;;8.03;;
4694;SDS011;2361;49.540;8.390;2022-08-19T11:33:45;8.67;;;7.70;;
4694;SDS011;2361;49.540;8.390;2022-08-19T11:36:13;7.70;;;6.47;;
4694;SDS011;2361;49.540;8.390;2022-08-19T11:38:42;9.17;;;7.87;;
4694;SDS011;2361;49.540;8.390;2022-08-19T11:41:09;8.80;;;7.00;;
4694;SDS011;2361;49.540;8.390;2022-08-19T11:43:37;7.10;;;6.43;;
4694;SDS011;2361;49.540;8.390;2022-08-19T11:46:06;8.50;;;7.70;;
4694;SDS011;2361;49.540;8.390;2022-08-19T11:48:36;6.63;;;5.83;;
4694;SDS011;2361;49.540;8.390;2022-08-19T11:51:04;6.87;;;6.27;;
4694;SDS011;2361;49.540;8.390;2022-08-19T11:53:35;7.50;;;6.80;;
4694;SDS011;2361;49.540;8.390;2022-08-19T11:56:02;7.80;;;7.10;;
4694;SDS011;2361;49.540;8.390;2022-08-19T11:58:33;7.13;;;6.50;;
4694;SDS011;2361;49.540;8.390;2022-08-19T12:01:04;8.00;;;5.23;;
4694;SDS011;2361;49.540;8.390;2022-08-19T12:03:33;6.80;;;6.20;;
4694;SDS011;2361;49.540;8.390;2022-08-19T12:06:07;6.27;;;5.67;;
4694;SDS011;2361;49.540;8.390;2022-08-19T12:08:46;5.73;;;5.20;;
4694;SDS011;2361;49.540;8.390;2022-08-19T12:11:13;6.47;;;5.73;;
4694;SDS011;2361;49.540;8.390;2022-08-19T12:13:41;6.43;;;5.90;;
4694;SDS011;2361;49.540;8.390;2022-08-19T12:16:12;6.97;;;6.37;;
4694;SDS011;2361;49.540;8.390;2022-08-19T12:18:42;6.77;;;6.20;;
4694;SDS011;2361;49.540;8.390;2022-08-19T12:21:13;5.83;;;5.23;;
4694;SDS011;2361;49.540;8.390;2022-08-19T12:23:41;6.13;;;5.13;;
4694;SDS011;2361;49.540;8.390;2022-08-19T12:26:10;5.93;;;4.83;;
4694;SDS011;2361;49.540;8.390;2022-08-19T12:28:37;5.60;;;5.10;;
4694;SDS011;2361;49.540;8.390;2022-08-19T12:31:22;4.87;;;4.47;;
4694;SDS011;2361;49.540;8.390;2022-08-19T12:34:18;5.30;;;4.80;;
4694;SDS011;2361;49.540;8.390;2022-08-19T12:36:46;4.20;;;3.87;;
4694;SDS011;2361;49.540;8.390;2022-08-19T12:39:15;5.23;;;4.83;;
4694;SDS011;2361;49.540;8.390;2022-08-19T12:41:42;5.00;;;4.60;;
4694;SDS011;2361;49.540;8.390;2022-08-19T12:44:20;4.67;;;4.30;;
4694;SDS011;2361;49.540;8.390;2022-08-19T12:46:55;4.30;;;3.90;;
4694;SDS011;2361;49.540;8.390;2022-08-19T12:49:22;5.70;;;4.50;;
4694;SDS011;2361;49.540;8.390;2022-08-19T12:52:11;5.30;;;4.80;;
4694;SDS011;2361;49.540;8.390;2022-08-19T12:54:42;6.07;;;5.40;;
4694;SDS011;2361;49.540;8.390;2022-08-19T12:57:09;5.93;;;5.33;;
4694;SDS011;2361;49.540;8.390;2022-08-19T12:59:37;6.20;;;5.00;;
4694;SDS011;2361;49.540;8.390;2022-08-19T13:02:05;5.93;;;5.30;;
4694;SDS011;2361;49.540;8.390;2022-08-19T13:04:35;6.70;;;5.50;;
4694;SDS011;2361;49.540;8.390;2022-08-19T13:07:03;5.83;;;5.33;;
4694;SDS011;2361;49.540;8.390;2022-08-19T13:09:30;6.07;;;4.53;;
4694;SDS011;2361;49.540;8.390;2022-08-19T13:11:57;5.90;;;5.30;;
4694;SDS011;2361;49.540;8.390;2022-08-19T13:14:25;6.07;;;5.50;;
4694;SDS011;2361;49.540;8.390;2022-08-19T13:16:52;5.43;;;5.03;;
4694;SDS011;2361;49.540;8.390;2022-08-19T13:19:19;5.40;;;4.90;;
4694;SDS011;2361;49.540;8.390;2022-08-19T13:21:49;5.40;;;4.90;;
4694;SDS011;2361;49.540;8.390;2022-08-19T13:24:25;5.77;;;5.20;;
4694;SDS011;2361;49.540;8.390;2022-08-19T13:26:59;5.87;;;5.47;;
4694;SDS011;2361;49.540;8.390;2022-08-19T13:29:26;4.80;;;4.23;;
4694;SDS011;2361;49.540;8.390;2022-08-19T13:32:12;1.90;;;1.40;;
4694;SDS011;2361;49.540;8.390;2022-08-19T13:34:58;5.23;;;4.73;;
4694;SDS011;2361;49.540;8.390;2022-08-19T13:37:25;4.70;;;4.30;;
4694;SDS011;2361;49.540;8.390;2022-08-19T13:40:14;7.20;;;4.80;;
4694;SDS011;2361;49.540;8.390;2022-08-19T13:42:45;4.13;;;3.83;;
4694;SDS011;2361;49.540;8.390;2022-08-19T13:45:18;4.30;;;4.00;;
4694;SDS011;2361;49.540;8.390;2022-08-19T13:47:51;4.77;;;4.07;;
4694;SDS011;2361;49.540;8.390;2022-08-19T13:50:26;4.30;;;4.00;;
4694;SDS011;2361;49.540;8.390;2022-08-19T13:52:57;6.00;;;5.40;;
4694;SDS011;2361;49.540;8.390;2022-08-19T13:55:24;4.53;;;4.23;;
4694;SDS011;2361;49.540;8.390;2022-08-19T13:57:53;3.97;;;3.67;;
4694;SDS011;2361;49.540;8.390;2022-08-19T14:00:24;4.57;;;4.20;;
4694;SDS011;2361;49.540;8.390;2022-08-19T14:02:55;4.27;;;3.97;;
4694;SDS011;2361;49.540;8.390;2022-08-19T14:05:24;5.40;;;4.23;;
4694;SDS011;2361;49.540;8.390;2022-08-19T14:07:53;4.20;;;3.67;;
4694;SDS011;2361;49.540;8.390;2022-08-19T14:10:20;4.30;;;4.00;;
4694;SDS011;2361;49.540;8.390;2022-08-19T14:12:49;4.10;;;3.70;;
4694;SDS011;2361;49.540;8.390;2022-08-19T14:15:21;3.90;;;3.70;;
4694;SDS011;2361;49.540;8.390;2022-08-19T14:17:49;4.43;;;4.00;;
4694;SDS011;2361;49.540;8.390;2022-08-19T14:20:17;4.07;;;3.87;;
4694;SDS011;2361;49.540;8.390;2022-08-19T14:22:44;4.20;;;3.90;;
4694;SDS011;2361;49.540;8.390;2022-08-19T14:25:14;4.87;;;4.47;;
4694;SDS011;2361;49.540;8.390;2022-08-19T14:27:50;4.70;;;4.07;;
4694;SDS011;2361;49.540;8.390;2022-08-19T14:30:19;4.03;;;3.73;;
4694;SDS011;2361;49.540;8.390;2022-08-19T14:32:57;4.60;;;4.20;;
4694;SDS011;2361;49.540;8.390;2022-08-19T14:35:26;4.40;;;4.10;;
4694;SDS011;2361;49.540;8.390;2022-08-19T14:37:55;6.03;;;4.23;;
4694;SDS011;2361;49.540;8.390;2022-08-19T14:40:24;4.90;;;3.80;;
4694;SDS011;2361;49.540;8.390;2022-08-19T14:42:54;4.00;;;3.70;;
4694;SDS011;2361;49.540;8.390;2022-08-19T14:45:27;4.60;;;4.20;;
4694;SDS011;2361;49.540;8.390;2022-08-19T14:47:57;5.27;;;4.37;;
4694;SDS011;2361;49.540;8.390;2022-08-19T14:50:26;3.80;;;3.50;;
4694;SDS011;2361;49.540;8.390;2022-08-19T14:53:04;4.70;;;4.07;;
4694;SDS011;2361;49.540;8.390;2022-08-19T14:55:40;5.10;;;4.80;;
4694;SDS011;2361;49.540;8.390;2022-08-19T14:58:09;4.70;;;4.30;;
4694;SDS011;2361;49.540;8.390;2022-08-19T15:00:56;4.57;;;4.17;;
4694;SDS011;2361;49.540;8.390;2022-08-19T15:03:25;5.40;;;4.90;;
4694;SDS011;2361;49.540;8.390;2022-08-19T15:05:52;6.60;;;4.87;;
4694;SDS011;2361;49.540;8.390;2022-08-19T15:08:20;4.40;;;4.10;;
4694;SDS011;2361;49.540;8.390;2022-08-19T15:10:51;4.13;;;3.73;;
4694;SDS011;2361;49.540;8.390;2022-08-19T15:13:18;4.73;;;4.33;;
4694;SDS011;2361;49.540;8.390;2022-08-19T15:15:45;5.00;;;4.53;;
4694;SDS011;2361;49.540;8.390;2022-08-19T15:18:14;4.47;;;4.17;;
4694;SDS011;2361;49.540;8.390;2022-08-19T15:20:41;5.10;;;4.70;;
4694;SDS011;2361;49.540;8.390;2022-08-19T15:23:12;5.10;;;4.60;;
4694;SDS011;2361;49.540;8.390;2022-08-19T15:25:44;5.03;;;4.63;;
4694;SDS011;2361;49.540;8.390;2022-08-19T15:28:11;5.53;;;4.93;;
4694;SDS011;2361;49.540;8.390;2022-08-19T15:30:39;4.13;;;3.87;;
4694;SDS011;2361;49.540;8.390;2022-08-19T15:33:06;4.60;;;4.20;;
4694;SDS011;2361;49.540;8.390;2022-08-19T15:35:34;4.87;;;4.47;;
4694;SDS011;2361;49.540;8.390;2022-08-19T15:38:01;5.73;;;4.80;;
4694;SDS011;2361;49.540;8.390;2022-08-19T15:40:28;5.27;;;4.87;;